Ottawa Macdonald-Cartier International Airport
CYOW : now visible

Airfield :











YOU CAN JOIN US ON...

 
LOGIN :

Register | Disclaimer

   EN    FR    IT 

 









Legend :    VFR   Marginal VFR   IFR   Intensive IFR   Very Intensive IFR
Visi :
Ceiling :
>= 8 km
>= 3000ft
5 to 8 km
1000 to 3000 ft
1500m to 5 km
500 to 1000 ft
800 to 1500m
200 to 500 ft
< 800m
< 200 ft
Symbols :   Thunderstorms  Fog  Heavy snow  Heavy precipitations  Wind > 20 kt






- Airport Elevation : 374 ft
- IATA code : YOW


CYOW - Ottawa Macdonald-Cartier International

CURRENT METAR :
  • 120300Z 28022G28KT 15SM FEW045 M08/M16 A3033 RMK SC1 SLP282

EXPIRED METARs :
  • 120200Z 27020KT 15SM FEW040 M08/M15 A3030 RMK SC1 SLP269
  • 120127Z 27015G24KT 15SM FEW035 M08/M14 A3027 RMK SC2 SLP262
  • 120100Z 27018G39KT 15SM -SN BKN033 M07/M12 A3026 RMK SC7 PRESRR SLP256
  • 120051Z 27021G32KT 5SM -SN BKN013 OVC028 M07/M12 A3025 RMK SF6SC2 PRESRR SLP254

TAF TAF CYOW
Valid from the 12 at 03:00 until the 13 at 00:00 UTC


120238Z 1203/1224 27015G25KT P6SM FEW040
BECMG 1204/1206 29012KT
FM120800 27008KT P6SM BKN040
FM121600 23008KT P6SM FEW025 OVC100
FM122200 20007KT 6SM -SN BKN025 OVC080
BECMG 1222/1224 14008KT RMK NXT FCST BY 120600Z



MET'MAP, your aeronautical weather chart ! - Copyright ORBIFLY December 2007 - Disclaimer

ORBIFLY MET'MAP TEAM :

Programming & Development : Alexandra Zaïnal
Concept & original design : Baudouin d'Aumeries
Assistance for programming : Marc-Olivier Méhu
Technical & hardware support : Manuel Goepfert

Contact : metmap@orbifly.com




SOURCES & CREDITS :

   NOAA       Earth
Advisory